createdAt,value
2022-10-05T00:00:16.844Z,418
2022-10-05T00:01:16.283Z,411
2022-10-05T00:02:16.763Z,408
2022-10-05T00:03:16.405Z,401
2022-10-05T00:04:15.049Z,398
2022-10-05T00:05:16.755Z,402
2022-10-05T00:06:16.497Z,400
2022-10-05T00:07:15.886Z,402
2022-10-05T00:09:15.481Z,398
2022-10-05T00:10:16.383Z,407
2022-10-05T00:11:16.522Z,401
2022-10-05T00:13:15.979Z,395
2022-10-05T00:14:15.738Z,405
2022-10-05T00:15:21.345Z,414
2022-10-05T00:16:15.654Z,410
2022-10-05T00:17:16.625Z,409
2022-10-05T00:18:16.525Z,401
2022-10-05T00:19:15.061Z,403
2022-10-05T00:20:16.896Z,395
2022-10-05T00:21:16.029Z,396
2022-10-05T00:22:16.009Z,399
2022-10-05T00:23:16.706Z,409
2022-10-05T00:24:15.477Z,397
2022-10-05T00:25:15.903Z,406
2022-10-05T00:26:16.777Z,409
2022-10-05T00:27:16.137Z,413
2022-10-05T00:29:15.676Z,403
2022-10-05T00:30:16.078Z,384
2022-10-05T00:31:15.819Z,382
2022-10-05T00:32:16.096Z,387
2022-10-05T00:33:15.683Z,378
2022-10-05T00:34:15.693Z,413
2022-10-05T00:35:15.998Z,405
2022-10-05T00:36:16.566Z,401
2022-10-05T00:37:16.198Z,406
2022-10-05T00:38:15.862Z,402
2022-10-05T00:39:15.712Z,403
2022-10-05T00:40:15.916Z,404
2022-10-05T00:41:15.692Z,402
2022-10-05T00:42:16.752Z,403
2022-10-05T00:43:16.093Z,412
2022-10-05T00:44:14.594Z,408
2022-10-05T00:45:16.574Z,395
2022-10-05T00:46:15.818Z,404
2022-10-05T00:47:16.577Z,411
2022-10-05T00:48:15.960Z,410
2022-10-05T00:50:16.517Z,408
2022-10-05T00:51:16.274Z,412
2022-10-05T00:52:15.879Z,416
2022-10-05T00:53:16.542Z,414
2022-10-05T00:54:19.445Z,388
2022-10-05T00:55:16.573Z,406
2022-10-05T00:56:16.721Z,410
2022-10-05T00:57:16.060Z,413
2022-10-05T00:58:16.728Z,412
2022-10-05T00:59:15.621Z,414
2022-10-05T01:00:15.778Z,419
2022-10-05T01:01:21.963Z,415
2022-10-05T01:03:16.067Z,412
2022-10-05T01:04:15.691Z,418
2022-10-05T01:05:21.415Z,414
2022-10-05T01:06:15.930Z,412
2022-10-05T01:07:21.232Z,407
2022-10-05T01:09:15.978Z,402
2022-10-05T01:11:15.931Z,398
2022-10-05T01:12:16.698Z,401
2022-10-05T01:13:16.325Z,400
2022-10-05T01:14:14.714Z,416
2022-10-05T01:15:16.650Z,391
2022-10-05T01:16:16.175Z,402
2022-10-05T01:17:15.902Z,406
2022-10-05T01:18:16.616Z,405
2022-10-05T01:19:15.420Z,396
2022-10-05T01:20:16.102Z,398
2022-10-05T01:21:16.247Z,399
2022-10-05T01:22:21.330Z,403
2022-10-05T01:23:16.754Z,399
2022-10-05T01:24:15.248Z,396
2022-10-05T01:25:16.022Z,404
2022-10-05T01:27:16.381Z,411
2022-10-05T01:28:16.052Z,404
2022-10-05T01:29:15.702Z,396
2022-10-05T01:30:15.974Z,395
2022-10-05T01:31:20.962Z,387
2022-10-05T01:33:15.818Z,384
2022-10-05T01:34:15.074Z,401
2022-10-05T01:36:16.340Z,400
2022-10-05T01:37:15.732Z,405
2022-10-05T01:38:16.715Z,393
2022-10-05T01:39:15.238Z,399
2022-10-05T01:40:15.459Z,405
2022-10-05T01:41:21.546Z,398
2022-10-05T01:42:16.074Z,395
2022-10-05T01:43:16.731Z,399
2022-10-05T01:44:15.522Z,406
2022-10-05T01:45:16.447Z,401
2022-10-05T01:46:16.919Z,402
2022-10-05T01:48:15.745Z,406
2022-10-05T01:49:20.604Z,392
2022-10-05T01:50:15.953Z,397
2022-10-05T01:51:15.993Z,400
2022-10-05T01:52:16.401Z,397
2022-10-05T01:53:15.798Z,402
2022-10-05T01:54:15.619Z,412
2022-10-05T01:55:16.150Z,379
2022-10-05T01:56:16.276Z,403
2022-10-05T01:57:16.714Z,412
2022-10-05T01:58:16.077Z,408
2022-10-05T01:59:14.956Z,403
2022-10-05T02:00:16.560Z,404
2022-10-05T02:01:16.387Z,403
2022-10-05T02:02:15.944Z,408
2022-10-05T02:03:16.478Z,398
2022-10-05T02:04:35.597Z,404
2022-10-05T02:05:15.898Z,408
2022-10-05T02:06:16.608Z,413
2022-10-05T02:07:16.137Z,410
2022-10-05T02:08:15.847Z,399
2022-10-05T02:09:15.690Z,397
2022-10-05T02:10:16.233Z,401
2022-10-05T02:11:15.714Z,404
2022-10-05T02:12:16.602Z,409
2022-10-05T02:13:16.252Z,411
2022-10-05T02:14:14.779Z,404
2022-10-05T02:15:16.583Z,405
2022-10-05T02:16:16.015Z,394
2022-10-05T02:17:15.642Z,392
2022-10-05T02:18:16.322Z,398
2022-10-05T02:19:15.180Z,404
2022-10-05T02:20:15.712Z,396
2022-10-05T02:21:16.370Z,386
2022-10-05T02:22:15.908Z,398
2022-10-05T02:23:15.827Z,390
2022-10-05T02:24:15.435Z,394
2022-10-05T02:25:15.854Z,397
2022-10-05T02:26:15.866Z,392
2022-10-05T02:27:16.116Z,381
2022-10-05T02:28:16.053Z,386
2022-10-05T02:29:14.705Z,387
2022-10-05T02:30:20.904Z,385
2022-10-05T02:31:21.163Z,386
2022-10-05T02:32:15.628Z,384
2022-10-05T02:33:16.139Z,382
2022-10-05T02:34:15.048Z,385
2022-10-05T02:35:16.421Z,392
2022-10-05T02:36:21.450Z,373
2022-10-05T02:37:15.995Z,375
2022-10-05T02:38:21.614Z,378
2022-10-05T02:39:15.331Z,370
2022-10-05T02:40:15.820Z,368
2022-10-05T02:41:16.624Z,375
2022-10-05T02:42:16.013Z,372
2022-10-05T02:43:15.656Z,369
2022-10-05T02:44:15.649Z,367
2022-10-05T02:45:16.194Z,374
2022-10-05T02:47:16.391Z,376
2022-10-05T02:48:15.892Z,375
2022-10-05T02:49:14.778Z,372
2022-10-05T02:50:16.167Z,373
2022-10-05T02:51:16.628Z,377
2022-10-05T02:52:15.698Z,369
2022-10-05T02:53:16.615Z,372
2022-10-05T02:54:15.176Z,364
2022-10-05T02:55:15.262Z,363
2022-10-05T02:56:16.289Z,380
2022-10-05T02:57:16.046Z,365
2022-10-05T02:58:16.591Z,380
2022-10-05T02:59:15.482Z,379
2022-10-05T03:00:15.883Z,380
2022-10-05T03:02:16.413Z,384
2022-10-05T03:03:15.987Z,378
2022-10-05T03:04:15.461Z,373
2022-10-05T03:05:16.252Z,369
2022-10-05T03:06:15.933Z,371
2022-10-05T03:07:16.508Z,367
2022-10-05T03:08:15.856Z,374
2022-10-05T03:09:14.944Z,385
2022-10-05T03:10:16.421Z,390
2022-10-05T03:11:16.129Z,382
2022-10-05T03:12:15.888Z,367
2022-10-05T03:13:16.576Z,363
2022-10-05T03:14:15.000Z,372
2022-10-05T03:15:16.628Z,363
2022-10-05T03:16:16.342Z,407
2022-10-05T03:17:16.021Z,379
2022-10-05T03:18:16.390Z,370
2022-10-05T03:19:15.402Z,367
2022-10-05T03:20:15.830Z,365
2022-10-05T03:21:16.335Z,362
2022-10-05T03:22:16.271Z,366
2022-10-05T03:23:15.971Z,367
2022-10-05T03:24:15.689Z,366
2022-10-05T03:25:16.196Z,364
2022-10-05T03:26:15.703Z,367
2022-10-05T03:27:16.117Z,370
2022-10-05T03:28:16.019Z,366
2022-10-05T03:29:15.847Z,370
2022-10-05T03:31:20.703Z,372
2022-10-05T03:33:16.010Z,360
2022-10-05T03:34:14.854Z,366
2022-10-05T03:35:16.186Z,367
2022-10-05T03:36:16.224Z,366
2022-10-05T03:37:15.891Z,389
2022-10-05T03:38:16.492Z,359
2022-10-05T03:39:19.983Z,362
2022-10-05T03:40:15.712Z,376
2022-10-05T03:42:17.764Z,368
2022-10-05T03:43:16.569Z,367
2022-10-05T03:44:15.857Z,368
2022-10-05T03:45:16.205Z,365
2022-10-05T03:46:16.542Z,370
2022-10-05T03:47:16.559Z,374
2022-10-05T03:48:16.049Z,366
2022-10-05T03:49:15.962Z,359
2022-10-05T03:50:16.325Z,364
2022-10-05T03:51:16.212Z,370
2022-10-05T03:52:16.361Z,365
2022-10-05T03:53:16.502Z,359
2022-10-05T03:54:14.773Z,356
2022-10-05T03:55:16.415Z,365
2022-10-05T03:56:16.339Z,352
2022-10-05T03:57:15.923Z,403
2022-10-05T03:58:16.733Z,386
2022-10-05T03:59:15.393Z,373
2022-10-05T04:00:16.111Z,369
2022-10-05T04:01:16.622Z,362
2022-10-05T04:02:16.014Z,359
2022-10-05T04:03:15.797Z,361
2022-10-05T04:04:15.171Z,369
2022-10-05T04:05:15.875Z,358
2022-10-05T04:06:21.896Z,371
2022-10-05T04:07:16.356Z,362
2022-10-05T04:08:15.508Z,359
2022-10-05T04:09:15.564Z,370
2022-10-05T04:10:16.176Z,368
2022-10-05T04:11:16.600Z,366
2022-10-05T04:12:16.092Z,378
2022-10-05T04:13:15.915Z,371
2022-10-05T04:15:22.568Z,380
2022-10-05T04:16:15.706Z,366
2022-10-05T04:17:16.540Z,369
2022-10-05T04:18:16.362Z,370
2022-10-05T04:19:15.015Z,362
2022-10-05T04:20:16.739Z,359
2022-10-05T04:21:20.054Z,367
2022-10-05T04:23:16.569Z,363
2022-10-05T04:24:15.337Z,371
2022-10-05T04:25:15.766Z,373
2022-10-05T04:26:16.671Z,365
2022-10-05T04:27:16.112Z,366
2022-10-05T04:28:15.648Z,372
2022-10-05T04:29:15.701Z,367
2022-10-05T04:30:16.173Z,372
2022-10-05T04:31:16.460Z,361
2022-10-05T04:32:16.031Z,356
2022-10-05T04:33:16.263Z,360
2022-10-05T04:34:15.347Z,371
2022-10-05T04:35:16.157Z,370
2022-10-05T04:36:15.647Z,369
2022-10-05T04:37:16.676Z,377
2022-10-05T04:38:16.205Z,352
2022-10-05T04:39:14.992Z,359
2022-10-05T04:40:16.420Z,361
2022-10-05T04:41:16.079Z,363
2022-10-05T04:42:15.957Z,362
2022-10-05T04:43:16.211Z,357
2022-10-05T04:44:15.124Z,367
2022-10-05T04:45:16.781Z,369
2022-10-05T04:46:16.623Z,366
2022-10-05T04:47:16.143Z,358
2022-10-05T04:48:16.572Z,360
2022-10-05T04:49:15.383Z,366
2022-10-05T04:50:15.942Z,372
2022-10-05T04:51:16.695Z,367
2022-10-05T04:52:16.245Z,357
2022-10-05T04:53:16.462Z,366
2022-10-05T04:54:15.697Z,360
2022-10-05T04:55:16.408Z,368
2022-10-05T04:56:15.382Z,371
2022-10-05T04:58:16.052Z,364
2022-10-05T04:59:15.763Z,341
2022-10-05T05:00:15.992Z,357
2022-10-05T05:01:16.330Z,361
2022-10-05T05:02:16.145Z,371
2022-10-05T05:03:16.042Z,374
2022-10-05T05:04:15.218Z,380
2022-10-05T05:05:16.384Z,371
2022-10-05T05:06:22.629Z,378
2022-10-05T05:07:15.975Z,381
2022-10-05T05:08:15.888Z,379
2022-10-05T05:09:15.361Z,371
2022-10-05T05:10:15.774Z,368
2022-10-05T05:11:24.619Z,377
2022-10-05T05:12:16.175Z,385
2022-10-05T05:14:15.591Z,382
2022-10-05T05:15:16.070Z,378
2022-10-05T05:16:15.243Z,373
2022-10-05T05:17:18.172Z,363
2022-10-05T05:18:15.894Z,408
2022-10-05T05:19:14.904Z,372
2022-10-05T05:20:16.315Z,365
2022-10-05T05:21:15.846Z,368
2022-10-05T05:22:16.571Z,375
2022-10-05T05:24:14.694Z,379
2022-10-05T05:25:16.580Z,373
2022-10-05T05:27:15.889Z,375
2022-10-05T05:28:16.534Z,379
2022-10-05T05:29:15.351Z,365
2022-10-05T05:30:15.750Z,363
2022-10-05T05:31:16.334Z,365
2022-10-05T05:32:15.679Z,375
2022-10-05T05:33:15.795Z,370
2022-10-05T05:34:15.717Z,367
2022-10-05T05:35:16.173Z,365
2022-10-05T05:36:20.772Z,368
2022-10-05T05:37:16.780Z,372
2022-10-05T05:38:16.171Z,391
2022-10-05T05:39:14.978Z,421
2022-10-05T05:40:15.918Z,369
2022-10-05T05:41:21.326Z,378
2022-10-05T05:43:16.351Z,377
2022-10-05T05:44:15.330Z,370
2022-10-05T05:45:15.726Z,371
2022-10-05T05:46:16.461Z,378
2022-10-05T05:47:16.242Z,376
2022-10-05T05:48:15.749Z,382
2022-10-05T05:49:20.647Z,376
2022-10-05T05:50:16.110Z,372
2022-10-05T05:51:15.640Z,369
2022-10-05T05:52:15.870Z,370
2022-10-05T05:53:15.758Z,366
2022-10-05T05:54:15.666Z,373
2022-10-05T05:55:16.446Z,375
2022-10-05T05:56:16.115Z,376
2022-10-05T05:57:16.684Z,392
2022-10-05T05:58:16.174Z,376
2022-10-05T05:59:15.751Z,391
2022-10-05T06:00:16.568Z,364
2022-10-05T06:01:39.507Z,376
2022-10-05T06:02:20.847Z,377
2022-10-05T06:03:16.584Z,374
2022-10-05T06:04:20.569Z,375
2022-10-05T06:05:20.818Z,380
2022-10-05T06:06:21.590Z,375
2022-10-05T06:07:16.277Z,378
2022-10-05T06:08:15.432Z,382
2022-10-05T06:09:15.709Z,386
2022-10-05T06:10:16.365Z,384
2022-10-05T06:11:15.773Z,385
2022-10-05T06:12:16.534Z,381
2022-10-05T06:13:16.208Z,383
2022-10-05T06:14:15.003Z,392
2022-10-05T06:15:16.216Z,382
2022-10-05T06:16:15.775Z,381
2022-10-05T06:17:15.898Z,376
2022-10-05T06:18:16.333Z,377
2022-10-05T06:19:15.255Z,382
2022-10-05T06:20:15.408Z,356
2022-10-05T06:21:16.652Z,366
2022-10-05T06:22:15.567Z,371
2022-10-05T06:23:16.561Z,380
2022-10-05T06:24:15.913Z,382
2022-10-05T06:25:16.059Z,375
2022-10-05T06:26:16.830Z,378
2022-10-05T06:27:16.132Z,371
2022-10-05T06:28:16.174Z,372
2022-10-05T06:29:16.318Z,377
2022-10-05T06:31:16.143Z,366
2022-10-05T06:32:16.587Z,360
2022-10-05T06:33:16.321Z,365
2022-10-05T06:34:15.163Z,363
2022-10-05T06:35:16.662Z,369
2022-10-05T06:37:16.182Z,367
2022-10-05T06:38:16.614Z,377
2022-10-05T06:39:16.453Z,360
2022-10-05T06:41:16.575Z,368
2022-10-05T06:42:15.980Z,370
2022-10-05T06:43:15.652Z,367
2022-10-05T06:44:16.806Z,376
2022-10-05T06:45:16.021Z,375
2022-10-05T06:46:15.359Z,374
2022-10-05T06:47:16.379Z,381
2022-10-05T06:49:14.711Z,372
2022-10-05T06:50:16.196Z,366
2022-10-05T06:51:15.990Z,371
2022-10-05T06:52:15.915Z,370
2022-10-05T06:53:16.108Z,376
2022-10-05T06:54:15.161Z,372
2022-10-05T06:55:19.266Z,386
2022-10-05T06:56:16.007Z,379
2022-10-05T06:57:15.830Z,384
2022-10-05T06:58:15.738Z,368
2022-10-05T06:59:16.327Z,402
2022-10-05T07:00:16.147Z,382
2022-10-05T07:01:16.869Z,383
2022-10-05T07:02:16.403Z,364
2022-10-05T07:03:15.872Z,369
2022-10-05T07:04:15.724Z,373
2022-10-05T07:05:16.553Z,375
2022-10-05T07:06:15.890Z,370
2022-10-05T07:07:16.613Z,372
2022-10-05T07:08:16.163Z,363
2022-10-05T07:09:15.715Z,368
2022-10-05T07:10:16.551Z,365
2022-10-05T07:11:16.026Z,369
2022-10-05T07:12:15.734Z,377
2022-10-05T07:13:16.451Z,367
2022-10-05T07:14:16.331Z,362
2022-10-05T07:15:15.950Z,364
2022-10-05T07:16:15.991Z,353
2022-10-05T07:17:16.272Z,388
2022-10-05T07:18:15.839Z,385
2022-10-05T07:19:16.279Z,366
2022-10-05T07:20:16.704Z,373
2022-10-05T07:21:15.700Z,378
2022-10-05T07:22:16.290Z,372
2022-10-05T07:23:16.333Z,365
2022-10-05T07:24:15.012Z,354
2022-10-05T07:25:16.443Z,356
2022-10-05T07:26:16.291Z,366
2022-10-05T07:27:15.590Z,372
2022-10-05T07:28:15.714Z,370
2022-10-05T07:29:15.841Z,359
2022-10-05T07:30:17.009Z,361
2022-10-05T07:31:16.412Z,373
2022-10-05T07:32:15.425Z,367
2022-10-05T07:33:16.570Z,358
2022-10-05T07:34:15.364Z,357
2022-10-05T07:35:15.715Z,351
2022-10-05T07:36:16.252Z,363
2022-10-05T07:37:16.330Z,361
2022-10-05T07:38:16.237Z,354
2022-10-05T07:39:15.745Z,357
2022-10-05T07:40:16.011Z,354
2022-10-05T07:41:15.859Z,352
2022-10-05T07:42:16.529Z,356
2022-10-05T07:43:16.246Z,353
2022-10-05T07:44:16.231Z,354
2022-10-05T07:45:16.510Z,345
2022-10-05T07:46:16.289Z,338
2022-10-05T07:47:15.661Z,343
2022-10-05T07:48:16.473Z,348
2022-10-05T07:49:15.243Z,357
2022-10-05T07:50:16.124Z,361
2022-10-05T07:51:16.428Z,358
2022-10-05T07:53:15.886Z,352
2022-10-05T07:54:15.615Z,365
2022-10-05T07:55:16.122Z,356
2022-10-05T07:56:15.480Z,326
2022-10-05T07:57:16.597Z,335
2022-10-05T07:58:16.002Z,346
2022-10-05T07:59:14.508Z,343
2022-10-05T08:00:16.399Z,347
2022-10-05T08:01:16.152Z,346
2022-10-05T08:02:16.725Z,357
2022-10-05T08:03:16.215Z,352
2022-10-05T08:04:15.021Z,347
2022-10-05T08:05:16.484Z,338
2022-10-05T08:06:15.870Z,335
2022-10-05T08:07:17.974Z,337
2022-10-05T08:08:20.598Z,336
2022-10-05T08:09:15.289Z,335
2022-10-05T08:10:16.840Z,346
2022-10-05T08:11:21.690Z,341
2022-10-05T08:12:16.151Z,349
2022-10-05T08:13:16.711Z,358
2022-10-05T08:15:16.058Z,360
2022-10-05T08:16:16.895Z,362
2022-10-05T08:17:16.091Z,357
2022-10-05T08:18:16.226Z,343
2022-10-05T08:20:15.307Z,351
2022-10-05T08:21:16.608Z,354
2022-10-05T08:22:16.368Z,353
2022-10-05T08:23:16.188Z,347
2022-10-05T08:24:15.641Z,349
2022-10-05T08:25:16.287Z,350
2022-10-05T08:26:15.603Z,338
2022-10-05T08:27:16.644Z,337
2022-10-05T08:28:16.443Z,336
2022-10-05T08:30:16.767Z,342
2022-10-05T08:32:15.698Z,311
2022-10-05T08:33:16.567Z,326
2022-10-05T08:34:15.375Z,344
2022-10-05T08:35:15.901Z,340
2022-10-05T08:36:16.672Z,343
2022-10-05T08:37:16.085Z,336
2022-10-05T08:38:15.459Z,335
2022-10-05T08:39:15.659Z,334
2022-10-05T08:40:16.005Z,340
2022-10-05T08:41:16.013Z,346
2022-10-05T08:42:15.995Z,344
2022-10-05T08:43:16.069Z,347
2022-10-05T08:44:14.927Z,345
2022-10-05T08:45:16.686Z,337
2022-10-05T08:46:16.301Z,336
2022-10-05T08:47:16.588Z,327
2022-10-05T08:48:15.848Z,336
2022-10-05T08:49:14.833Z,344
2022-10-05T08:50:16.518Z,312
2022-10-05T08:51:16.241Z,323
2022-10-05T08:53:16.471Z,331
2022-10-05T08:54:14.791Z,333
2022-10-05T08:55:15.365Z,330
2022-10-05T08:56:19.169Z,338
2022-10-05T08:57:15.970Z,337
2022-10-05T08:58:16.405Z,328
2022-10-05T08:59:15.644Z,325
2022-10-05T09:00:15.895Z,335
2022-10-05T09:01:16.676Z,329
2022-10-05T09:02:16.494Z,330
2022-10-05T09:03:15.890Z,332
2022-10-05T09:04:16.722Z,336
2022-10-05T09:06:15.875Z,348
2022-10-05T09:07:16.826Z,331
2022-10-05T09:08:16.245Z,340
2022-10-05T09:09:15.164Z,341
2022-10-05T09:10:16.578Z,331
2022-10-05T09:11:16.339Z,337
2022-10-05T09:12:15.839Z,351
2022-10-05T09:13:16.599Z,336
2022-10-05T09:14:14.880Z,323
2022-10-05T09:15:30.197Z,340
2022-10-05T09:16:16.583Z,331
2022-10-05T09:17:16.806Z,325
2022-10-05T09:18:15.534Z,322
2022-10-05T09:19:16.401Z,321
2022-10-05T09:20:15.248Z,320
2022-10-05T09:21:16.624Z,339
2022-10-05T09:22:16.874Z,334
2022-10-05T09:23:15.889Z,354
2022-10-05T09:24:16.375Z,324
2022-10-05T09:25:16.222Z,329
2022-10-05T09:26:15.648Z,338
2022-10-05T09:27:16.574Z,350
2022-10-05T09:28:15.808Z,348
2022-10-05T09:29:14.988Z,339
2022-10-05T09:30:16.047Z,329
2022-10-05T09:32:20.590Z,332
2022-10-05T09:33:16.471Z,336
2022-10-05T09:34:15.280Z,335
2022-10-05T09:35:16.832Z,332
2022-10-05T09:37:15.947Z,333
2022-10-05T09:38:16.376Z,317
2022-10-05T09:39:15.336Z,361
2022-10-05T09:40:15.722Z,366
2022-10-05T09:41:16.594Z,337
2022-10-05T09:42:15.774Z,338
2022-10-05T09:43:16.885Z,345
2022-10-05T09:44:15.554Z,337
2022-10-05T09:45:21.027Z,346
2022-10-05T09:46:16.479Z,343
2022-10-05T09:47:16.058Z,336
2022-10-05T09:48:15.463Z,340
2022-10-05T09:49:16.466Z,337
2022-10-05T09:50:15.942Z,328
2022-10-05T09:51:16.837Z,332
2022-10-05T09:52:23.131Z,340
2022-10-05T09:54:16.535Z,338
2022-10-05T09:55:16.196Z,324
2022-10-05T09:56:16.084Z,359
2022-10-05T09:57:16.594Z,322
2022-10-05T09:58:16.215Z,319
2022-10-05T09:59:15.087Z,322
2022-10-05T10:00:16.571Z,327
2022-10-05T10:01:36.045Z,346
2022-10-05T10:02:16.130Z,341
2022-10-05T10:03:16.728Z,335
2022-10-05T10:04:15.747Z,340
2022-10-05T10:05:16.129Z,336
2022-10-05T10:06:16.543Z,325
2022-10-05T10:07:16.169Z,334
2022-10-05T10:08:15.754Z,330
2022-10-05T10:09:15.779Z,339
2022-10-05T10:10:16.218Z,333
2022-10-05T10:11:15.693Z,334
2022-10-05T10:12:16.234Z,344
2022-10-05T10:13:15.987Z,322
2022-10-05T10:14:15.054Z,326
2022-10-05T10:15:16.210Z,335
2022-10-05T10:16:15.348Z,332
2022-10-05T10:17:16.558Z,325
2022-10-05T10:18:16.388Z,327
2022-10-05T10:19:14.812Z,332
2022-10-05T10:20:16.482Z,335
2022-10-05T10:21:16.159Z,336
2022-10-05T10:23:16.817Z,332
2022-10-05T10:24:14.999Z,322
2022-10-05T10:25:16.084Z,333
2022-10-05T10:26:15.702Z,340
2022-10-05T10:27:16.016Z,337
2022-10-05T10:28:15.287Z,335
2022-10-05T10:29:15.709Z,333
2022-10-05T10:30:15.238Z,330
2022-10-05T10:31:16.395Z,325
2022-10-05T10:32:16.125Z,319
2022-10-05T10:33:16.204Z,332
2022-10-05T10:34:15.762Z,333
2022-10-05T10:35:16.106Z,338
2022-10-05T10:36:15.536Z,321
2022-10-05T10:37:16.505Z,323
2022-10-05T10:38:16.034Z,335
2022-10-05T10:39:14.823Z,328
2022-10-05T10:40:16.091Z,326
2022-10-05T10:41:15.938Z,334
2022-10-05T10:42:16.597Z,335
2022-10-05T10:43:16.249Z,330
2022-10-05T10:44:14.486Z,326
2022-10-05T10:45:16.326Z,324
2022-10-05T10:46:16.006Z,304
2022-10-05T10:47:16.649Z,306
2022-10-05T10:48:15.529Z,318
2022-10-05T10:49:16.092Z,328
2022-10-05T10:50:16.387Z,342
2022-10-05T10:51:16.436Z,343
2022-10-05T10:52:16.157Z,344
2022-10-05T10:53:16.567Z,345
2022-10-05T10:54:15.827Z,338
2022-10-05T10:55:15.924Z,333
2022-10-05T10:56:16.675Z,338
2022-10-05T10:57:16.165Z,337
2022-10-05T10:59:15.576Z,340
2022-10-05T11:01:16.592Z,353
2022-10-05T11:02:16.085Z,317
2022-10-05T11:03:17.027Z,322
2022-10-05T11:04:15.233Z,339
2022-10-05T11:05:15.777Z,335
2022-10-05T11:06:16.701Z,338
2022-10-05T11:07:16.439Z,329
2022-10-05T11:08:16.064Z,341
2022-10-05T11:09:15.856Z,345
2022-10-05T11:10:16.192Z,330
2022-10-05T11:11:15.791Z,331
2022-10-05T11:12:16.665Z,332
2022-10-05T11:13:16.194Z,343
2022-10-05T11:14:15.036Z,338
2022-10-05T11:15:16.451Z,331
2022-10-05T11:16:19.841Z,325
2022-10-05T11:17:15.637Z,339
2022-10-05T11:18:16.734Z,345
2022-10-05T11:19:15.456Z,344
2022-10-05T11:20:15.905Z,342
2022-10-05T11:21:16.483Z,341
2022-10-05T11:23:15.539Z,338
2022-10-05T11:24:15.989Z,330
2022-10-05T11:25:16.017Z,326
2022-10-05T11:26:15.704Z,329
2022-10-05T11:27:16.523Z,336
2022-10-05T11:28:16.281Z,337
2022-10-05T11:29:14.981Z,328
2022-10-05T11:30:16.269Z,334
2022-10-05T11:32:15.725Z,339
2022-10-05T11:33:16.360Z,318
2022-10-05T11:34:15.237Z,361
2022-10-05T11:35:16.657Z,336
2022-10-05T11:36:16.528Z,333
2022-10-05T11:37:16.045Z,339
2022-10-05T11:38:16.674Z,348
2022-10-05T11:39:15.563Z,345
2022-10-05T11:40:15.601Z,344
2022-10-05T11:41:16.210Z,332
2022-10-05T11:42:16.359Z,329
2022-10-05T11:43:15.969Z,335
2022-10-05T11:44:15.703Z,333
2022-10-05T11:46:16.199Z,337
2022-10-05T11:47:16.421Z,336
2022-10-05T11:48:16.383Z,328
2022-10-05T11:49:15.130Z,334
2022-10-05T11:50:16.814Z,335
2022-10-05T11:51:16.445Z,337
2022-10-05T11:52:15.882Z,341
2022-10-05T11:53:16.508Z,339
2022-10-05T11:54:15.508Z,344
2022-10-05T11:55:17.050Z,333
2022-10-05T11:56:16.306Z,332
2022-10-05T11:57:16.209Z,330
2022-10-05T11:58:15.632Z,333
2022-10-05T11:59:15.672Z,334
2022-10-05T12:00:15.352Z,336
2022-10-05T12:01:15.797Z,332
2022-10-05T12:02:16.368Z,337
2022-10-05T12:03:16.561Z,330
2022-10-05T12:04:15.026Z,320
2022-10-05T12:05:15.946Z,326
2022-10-05T12:06:15.702Z,375
2022-10-05T12:07:16.204Z,336
2022-10-05T12:08:15.690Z,338
2022-10-05T12:09:14.659Z,334
2022-10-05T12:10:16.316Z,342
2022-10-05T12:12:15.038Z,341
2022-10-05T12:13:16.347Z,340
2022-10-05T12:14:14.919Z,334
2022-10-05T12:15:15.512Z,338
2022-10-05T12:16:16.427Z,344
2022-10-05T12:17:16.108Z,351
2022-10-05T12:18:16.302Z,354
2022-10-05T12:19:16.425Z,340
2022-10-05T12:20:15.371Z,333
2022-10-05T12:21:16.412Z,346
2022-10-05T12:22:15.860Z,327
2022-10-05T12:23:16.028Z,342
2022-10-05T12:24:15.674Z,341
2022-10-05T12:25:16.238Z,333
2022-10-05T12:26:15.770Z,341
2022-10-05T12:27:16.346Z,339
2022-10-05T12:28:16.065Z,345
2022-10-05T12:29:16.093Z,340
2022-10-05T12:30:16.210Z,331
2022-10-05T12:31:15.801Z,324
2022-10-05T12:32:16.539Z,336
2022-10-05T12:33:16.313Z,342
2022-10-05T12:34:14.854Z,347
2022-10-05T12:35:36.234Z,350
2022-10-05T12:36:16.306Z,345
2022-10-05T12:37:16.020Z,315
2022-10-05T12:38:16.645Z,367
2022-10-05T12:39:16.283Z,335
2022-10-05T12:40:15.530Z,331
2022-10-05T12:41:16.278Z,337
2022-10-05T12:42:15.861Z,327
2022-10-05T12:43:15.833Z,322
2022-10-05T12:44:15.649Z,333
2022-10-05T12:45:15.826Z,331
2022-10-05T12:46:15.658Z,339
2022-10-05T12:47:16.627Z,338
2022-10-05T12:48:16.122Z,340
2022-10-05T12:50:16.476Z,337
2022-10-05T12:51:16.103Z,341
2022-10-05T12:52:15.766Z,330
2022-10-05T12:53:16.429Z,328
2022-10-05T12:54:15.278Z,335
2022-10-05T12:55:17.548Z,344
2022-10-05T12:56:16.325Z,353
2022-10-05T12:57:16.061Z,352
2022-10-05T12:58:16.458Z,351
2022-10-05T12:59:15.514Z,361
2022-10-05T13:01:16.725Z,352
2022-10-05T13:02:16.614Z,361
2022-10-05T13:03:16.046Z,363
2022-10-05T13:04:15.450Z,346
2022-10-05T13:05:16.403Z,347
2022-10-05T13:06:16.062Z,357
2022-10-05T13:07:16.737Z,321
2022-10-05T13:08:16.233Z,406
2022-10-05T13:09:14.860Z,365
2022-10-05T13:10:16.187Z,344
2022-10-05T13:11:19.721Z,351
2022-10-05T13:12:16.027Z,350
2022-10-05T13:14:15.325Z,352
2022-10-05T13:15:15.787Z,347
2022-10-05T13:16:17.086Z,346
2022-10-05T13:17:16.208Z,341
2022-10-05T13:18:16.814Z,342
2022-10-05T13:19:16.378Z,340
2022-10-05T13:20:16.464Z,335
2022-10-05T13:21:15.960Z,334
2022-10-05T13:22:16.532Z,316
2022-10-05T13:23:16.297Z,346
2022-10-05T13:24:14.811Z,326
2022-10-05T13:25:16.140Z,338
2022-10-05T13:26:16.368Z,345
2022-10-05T13:27:16.603Z,348
2022-10-05T13:28:15.948Z,335
2022-10-05T13:29:15.004Z,327
2022-10-05T13:30:16.457Z,328
2022-10-05T13:31:16.012Z,332
2022-10-05T13:32:15.623Z,330
2022-10-05T13:33:16.281Z,344
2022-10-05T13:34:15.741Z,340
2022-10-05T13:35:16.755Z,331
2022-10-05T13:36:16.652Z,338
2022-10-05T13:38:16.518Z,342
2022-10-05T13:39:16.392Z,341
2022-10-05T13:40:15.623Z,346
2022-10-05T13:41:16.749Z,348
2022-10-05T13:42:16.267Z,351
2022-10-05T13:43:16.954Z,349
2022-10-05T13:44:15.217Z,344
2022-10-05T13:45:15.944Z,348
2022-10-05T13:46:17.210Z,354
2022-10-05T13:47:16.178Z,348
2022-10-05T13:48:15.565Z,350
2022-10-05T13:49:16.126Z,351
2022-10-05T13:50:15.863Z,349
2022-10-05T13:51:16.696Z,341
2022-10-05T13:52:16.785Z,356
2022-10-05T13:53:16.339Z,329
2022-10-05T13:54:15.677Z,335
2022-10-05T13:55:16.558Z,337
2022-10-05T13:56:16.259Z,341
2022-10-05T13:57:15.967Z,338
2022-10-05T13:58:16.100Z,330
2022-10-05T13:59:16.525Z,335
2022-10-05T14:00:15.812Z,330
2022-10-05T14:01:16.913Z,332
2022-10-05T14:02:15.810Z,342
2022-10-05T14:03:16.171Z,350
2022-10-05T14:04:15.610Z,342
2022-10-05T14:06:15.921Z,340
2022-10-05T14:07:16.582Z,346
2022-10-05T14:08:16.371Z,301
2022-10-05T14:09:15.772Z,324
2022-10-05T14:10:16.245Z,335
2022-10-05T14:11:16.936Z,334
2022-10-05T14:12:15.707Z,341
2022-10-05T14:13:16.350Z,348
2022-10-05T14:14:15.628Z,354
2022-10-05T14:15:15.910Z,350
2022-10-05T14:16:16.258Z,337
2022-10-05T14:17:15.886Z,341
2022-10-05T14:18:15.535Z,337
2022-10-05T14:19:16.289Z,342
2022-10-05T14:20:15.769Z,350
2022-10-05T14:21:17.410Z,341
2022-10-05T14:22:16.362Z,343
2022-10-05T14:23:18.561Z,308
2022-10-05T14:24:43.268Z,319
2022-10-05T14:25:16.069Z,335
2022-10-05T14:26:16.775Z,337
2022-10-05T14:27:16.457Z,335
2022-10-05T14:28:15.979Z,330
2022-10-05T14:29:16.793Z,343
2022-10-05T14:30:16.102Z,342
2022-10-05T14:31:16.389Z,345
2022-10-05T14:32:17.016Z,347
2022-10-05T14:33:16.072Z,348
2022-10-05T14:34:15.199Z,347
2022-10-05T14:35:16.438Z,349